createdAt,value
2022-10-05T00:00:49.360Z,1132.25
2022-10-05T00:03:16.455Z,1192.65
2022-10-05T00:05:45.681Z,1177.50
2022-10-05T00:08:12.772Z,1163.40
2022-10-05T00:10:43.309Z,1160.63
2022-10-05T00:13:15.247Z,1166.05
2022-10-05T00:15:42.770Z,1140.90
2022-10-05T00:18:15.348Z,1104.40
2022-10-05T00:20:43.146Z,1075.10
2022-10-05T00:23:20.813Z,1115.25
2022-10-05T00:25:48.358Z,1153.35
2022-10-05T00:28:21.847Z,1131.63
2022-10-05T00:30:49.011Z,1173.63
2022-10-05T00:33:16.073Z,1121.50
2022-10-05T00:35:43.196Z,1030.07
2022-10-05T00:38:10.241Z,1146.85
2022-10-05T00:40:37.308Z,1113.70
2022-10-05T00:43:12.428Z,1118.65
2022-10-05T00:45:51.194Z,1186.63
2022-10-05T00:48:21.407Z,1067.57
2022-10-05T00:51:10.335Z,1090.03
2022-10-05T00:53:46.585Z,1124.18
2022-10-05T00:56:19.482Z,1113.00
2022-10-05T00:58:56.694Z,1000.38
2022-10-05T01:01:26.706Z,1129.93
2022-10-05T01:03:56.853Z,1031.68
2022-10-05T01:06:23.984Z,1035.07
2022-10-05T01:09:09.499Z,1058.85
2022-10-05T01:11:44.383Z,1062.35
2022-10-05T01:14:28.457Z,1081.78
2022-10-05T01:16:58.307Z,992.15
2022-10-05T01:19:43.779Z,1032.15
2022-10-05T01:22:10.843Z,1096.50
2022-10-05T01:24:37.886Z,1118.25
2022-10-05T01:27:17.186Z,1061.82
2022-10-05T01:29:57.039Z,996.10
2022-10-05T01:32:45.418Z,1059.25
2022-10-05T01:35:19.580Z,1090.53
2022-10-05T01:37:52.585Z,1115.57
2022-10-05T01:40:22.414Z,1116.10
2022-10-05T01:43:07.622Z,966.80
2022-10-05T01:45:54.966Z,933.40
2022-10-05T01:48:32.763Z,995.88
2022-10-05T01:51:10.427Z,1040.75
2022-10-05T01:53:56.327Z,1031.72
2022-10-05T01:56:29.046Z,986.63
2022-10-05T01:59:16.375Z,1042.78
2022-10-05T02:01:46.465Z,1100.63
2022-10-05T02:04:42.694Z,1027.82
2022-10-05T02:07:09.220Z,1129.00
2022-10-05T02:09:40.370Z,1116.82
2022-10-05T02:12:16.262Z,1046.00
2022-10-05T02:14:44.557Z,1074.95
2022-10-05T02:17:14.306Z,1055.60
2022-10-05T02:19:50.903Z,1137.70
2022-10-05T02:22:24.642Z,1090.07
2022-10-05T02:24:54.601Z,1028.03
2022-10-05T02:27:32.603Z,952.95
2022-10-05T02:30:03.696Z,973.15
2022-10-05T02:32:35.441Z,938.70
2022-10-05T02:35:04.677Z,1043.47
2022-10-05T02:37:34.755Z,996.38
2022-10-05T02:40:20.510Z,963.50
2022-10-05T02:42:47.558Z,1013.60
2022-10-05T02:45:14.633Z,881.58
2022-10-05T02:47:46.343Z,873.47
2022-10-05T02:50:13.406Z,910.42
2022-10-05T02:52:40.496Z,806.65
2022-10-05T02:55:15.814Z,927.88
2022-10-05T02:57:45.750Z,938.60
2022-10-05T03:00:17.917Z,907.33
2022-10-05T03:02:54.069Z,998.45
2022-10-05T03:05:24.479Z,932.03
2022-10-05T03:08:00.756Z,982.13
2022-10-05T03:10:27.877Z,646.42
2022-10-05T03:12:59.143Z,803.17
2022-10-05T03:15:36.927Z,727.58
2022-10-05T03:18:07.338Z,882.00
2022-10-05T03:20:44.771Z,974.22
2022-10-05T03:23:14.970Z,902.80
2022-10-05T03:25:46.057Z,788.28
2022-10-05T03:28:25.351Z,854.45
2022-10-05T03:30:52.517Z,891.60
2022-10-05T03:33:26.760Z,954.58
2022-10-05T03:35:53.825Z,826.28
2022-10-05T03:38:20.882Z,711.92
2022-10-05T03:41:05.162Z,724.03
2022-10-05T03:43:54.071Z,756.53
2022-10-05T03:46:26.943Z,933.97
2022-10-05T03:48:59.373Z,944.17
2022-10-05T03:51:32.119Z,953.95
2022-10-05T03:54:04.463Z,950.75
2022-10-05T03:56:36.984Z,886.30
2022-10-05T03:59:08.853Z,841.03
2022-10-05T04:01:56.141Z,757.35
2022-10-05T04:04:39.112Z,824.65
2022-10-05T04:07:09.379Z,795.47
2022-10-05T04:09:37.840Z,655.40
2022-10-05T04:12:22.618Z,611.20
2022-10-05T04:14:52.615Z,589.53
2022-10-05T04:17:32.240Z,699.90
2022-10-05T04:20:04.603Z,814.22
2022-10-05T04:22:36.140Z,804.95
2022-10-05T04:25:23.462Z,678.78
2022-10-05T04:27:53.470Z,680.67
2022-10-05T04:30:22.245Z,894.75
2022-10-05T04:32:59.632Z,945.38
2022-10-05T04:35:31.994Z,949.90
2022-10-05T04:38:02.092Z,843.58
2022-10-05T04:40:42.240Z,801.88
2022-10-05T04:43:09.309Z,892.85
2022-10-05T04:45:45.821Z,938.22
2022-10-05T04:48:25.739Z,722.50
2022-10-05T04:51:11.525Z,757.50
2022-10-05T04:53:53.919Z,798.17
2022-10-05T04:56:24.969Z,732.05
2022-10-05T04:58:58.249Z,677.08
2022-10-05T05:01:34.313Z,763.28
2022-10-05T05:04:01.421Z,814.33
2022-10-05T05:06:53.191Z,653.58
2022-10-05T05:09:23.360Z,651.13
2022-10-05T05:11:53.254Z,671.58
2022-10-05T05:14:26.841Z,713.70
2022-10-05T05:17:12.910Z,637.10
2022-10-05T05:19:56.467Z,724.63
2022-10-05T05:22:32.372Z,610.63
2022-10-05T05:25:22.133Z,736.78
2022-10-05T05:27:51.984Z,832.22
2022-10-05T05:30:29.931Z,913.33
2022-10-05T05:33:17.607Z,640.03
2022-10-05T05:35:44.763Z,883.92
2022-10-05T05:38:21.086Z,789.38
2022-10-05T05:40:48.130Z,562.50
2022-10-05T05:43:30.957Z,733.85
2022-10-05T05:46:00.466Z,552.95
2022-10-05T05:48:31.828Z,615.30
2022-10-05T05:51:03.138Z,372.63
2022-10-05T05:53:33.875Z,404.35
2022-10-05T05:56:06.057Z,436.53
2022-10-05T05:58:34.858Z,486.30
2022-10-05T06:01:04.815Z,487.95
2022-10-05T06:03:35.081Z,485.98
2022-10-05T06:06:04.483Z,395.52
2022-10-05T06:08:35.012Z,369.48
2022-10-05T06:11:23.075Z,429.30
2022-10-05T06:13:50.532Z,432.95
2022-10-05T06:16:23.227Z,437.92
2022-10-05T06:19:03.299Z,447.55
2022-10-05T06:21:30.383Z,470.15
2022-10-05T06:24:01.539Z,419.58
2022-10-05T06:26:40.634Z,465.55
2022-10-05T06:29:17.500Z,469.98
2022-10-05T06:31:58.580Z,451.48
2022-10-05T06:34:26.063Z,483.48
2022-10-05T06:37:08.155Z,437.42
2022-10-05T06:39:38.266Z,337.40
2022-10-05T06:42:24.155Z,383.10
2022-10-05T06:45:00.107Z,327.67
2022-10-05T06:47:32.397Z,303.30
2022-10-05T06:50:11.401Z,299.48
2022-10-05T06:52:57.573Z,353.35
2022-10-05T06:55:30.986Z,367.40
2022-10-05T06:58:06.019Z,394.33
2022-10-05T07:00:54.830Z,405.27
2022-10-05T07:03:21.946Z,287.35
2022-10-05T07:05:55.034Z,352.15
2022-10-05T07:08:30.223Z,380.60
2022-10-05T07:11:16.326Z,352.88
2022-10-05T07:13:51.384Z,364.52
2022-10-05T07:16:35.687Z,368.52
2022-10-05T07:19:10.123Z,377.33
2022-10-05T07:21:40.359Z,371.73
2022-10-05T07:24:10.218Z,354.40
2022-10-05T07:26:47.429Z,399.15
2022-10-05T07:29:43.782Z,360.08
2022-10-05T07:32:10.887Z,397.23
2022-10-05T07:34:59.000Z,188.73
2022-10-05T07:37:51.196Z,223.98
2022-10-05T07:40:22.805Z,223.20
2022-10-05T07:43:08.767Z,142.68
2022-10-05T07:45:46.868Z,212.18
2022-10-05T07:48:21.723Z,129.95
2022-10-05T07:51:07.885Z,209.27
2022-10-05T07:53:37.723Z,229.68
2022-10-05T07:56:13.430Z,111.13
2022-10-05T07:58:40.471Z,194.90
2022-10-05T08:01:29.626Z,138.10
2022-10-05T08:03:56.861Z,181.70
2022-10-05T08:06:34.699Z,116.97
2022-10-05T08:09:08.287Z,198.43
2022-10-05T08:11:40.344Z,193.32
2022-10-05T08:14:16.589Z,140.35
2022-10-05T08:16:44.040Z,202.88
2022-10-05T08:19:26.871Z,130.30
2022-10-05T08:22:01.036Z,178.15
2022-10-05T08:24:46.559Z,196.52
2022-10-05T08:27:21.215Z,157.43
2022-10-05T08:29:54.416Z,189.00
2022-10-05T08:32:41.112Z,219.80
2022-10-05T08:35:17.837Z,141.98
2022-10-05T08:37:45.818Z,60.38
2022-10-05T08:40:12.926Z,81.68
2022-10-05T08:42:49.059Z,166.20
2022-10-05T08:45:28.188Z,169.48
2022-10-05T08:47:55.222Z,54.30
2022-10-05T08:50:35.649Z,56.08
2022-10-05T08:53:25.876Z,83.22
2022-10-05T08:56:11.452Z,74.90
2022-10-05T08:58:41.552Z,86.13
2022-10-05T09:01:15.091Z,69.85
2022-10-05T09:03:59.521Z,81.70
2022-10-05T09:06:26.569Z,95.78
2022-10-05T09:08:53.707Z,179.93
2022-10-05T09:11:33.681Z,201.07
2022-10-05T09:14:06.096Z,138.23
2022-10-05T09:16:39.720Z,200.27
2022-10-05T09:19:12.584Z,56.22
2022-10-05T09:21:43.881Z,80.13
2022-10-05T09:26:56.715Z,144.25
2022-10-05T09:29:26.896Z,155.52
2022-10-05T09:32:11.715Z,78.50
2022-10-05T09:35:00.061Z,98.07
2022-10-05T09:37:46.283Z,108.28
2022-10-05T09:40:13.335Z,53.45
2022-10-05T09:42:48.081Z,67.05
2022-10-05T09:45:27.358Z,17.45
2022-10-05T09:48:13.169Z,75.25
2022-10-05T09:50:59.154Z,103.20
2022-10-05T09:53:40.719Z,83.60
2022-10-05T09:56:19.623Z,87.20
2022-10-05T09:58:49.747Z,98.72
2022-10-05T10:01:34.320Z,69.53
2022-10-05T10:04:01.632Z,46.75
2022-10-05T10:06:42.530Z,72.50
2022-10-05T10:09:09.565Z,75.30
2022-10-05T10:11:42.660Z,73.43
2022-10-05T10:14:22.362Z,41.83
2022-10-05T10:17:04.101Z,39.75
2022-10-05T10:19:49.680Z,105.63
2022-10-05T10:22:39.717Z,134.48
2022-10-05T10:25:37.809Z,62.03
2022-10-05T10:28:07.773Z,49.80
2022-10-05T10:30:47.308Z,85.63
2022-10-05T10:33:32.742Z,41.15
2022-10-05T10:36:35.274Z,33.17
2022-10-05T10:39:02.312Z,30.27
2022-10-05T10:41:47.632Z,48.55
2022-10-05T10:44:14.671Z,46.40
2022-10-05T10:46:48.337Z,55.60
2022-10-05T10:49:21.928Z,58.08
2022-10-05T10:52:07.470Z,42.15
2022-10-05T10:54:53.292Z,52.28
2022-10-05T10:57:33.882Z,59.42
2022-10-05T11:00:06.757Z,80.32
2022-10-05T11:02:37.285Z,101.45
2022-10-05T11:05:04.466Z,75.07
2022-10-05T11:07:51.855Z,79.32
2022-10-05T11:10:37.847Z,56.22
2022-10-05T11:13:11.029Z,66.35
2022-10-05T11:15:58.214Z,77.40
2022-10-05T11:18:47.863Z,97.43
2022-10-05T11:21:31.693Z,87.82
2022-10-05T11:24:07.773Z,70.75
2022-10-05T11:26:55.107Z,66.55
2022-10-05T11:29:22.184Z,102.70
2022-10-05T11:31:58.552Z,75.88
2022-10-05T11:34:37.564Z,150.68
2022-10-05T11:37:16.568Z,206.00
2022-10-05T11:40:01.769Z,283.45
2022-10-05T11:42:28.825Z,192.75
2022-10-05T11:45:08.005Z,344.95
2022-10-05T11:47:58.343Z,291.00
2022-10-05T11:50:48.056Z,363.80
2022-10-05T11:53:27.949Z,226.48
2022-10-05T11:56:09.551Z,285.75
2022-10-05T11:58:38.688Z,186.10
2022-10-05T12:01:17.679Z,313.75
2022-10-05T12:03:49.961Z,276.02
2022-10-05T12:06:27.113Z,150.07
2022-10-05T12:08:54.173Z,186.63
2022-10-05T12:11:41.467Z,221.10
2022-10-05T12:14:14.345Z,225.57
2022-10-05T12:16:58.805Z,238.20
2022-10-05T12:19:36.594Z,186.20
2022-10-05T12:22:30.168Z,274.55
2022-10-05T12:25:01.909Z,253.25
2022-10-05T12:27:32.424Z,266.77
2022-10-05T12:30:11.686Z,234.27
2022-10-05T12:33:01.869Z,319.45
2022-10-05T12:35:47.511Z,301.30
2022-10-05T12:38:18.320Z,316.50
2022-10-05T12:40:46.471Z,312.05
2022-10-05T12:43:19.738Z,258.45
2022-10-05T12:46:05.364Z,262.60
2022-10-05T12:48:40.006Z,138.07
2022-10-05T12:51:14.380Z,228.40
2022-10-05T12:53:49.694Z,319.80
2022-10-05T12:56:24.504Z,486.60
2022-10-05T12:59:04.471Z,325.63
2022-10-05T13:01:36.809Z,326.75
2022-10-05T13:04:07.031Z,213.15
2022-10-05T13:06:39.733Z,168.52
2022-10-05T13:09:11.323Z,172.95
2022-10-05T13:11:42.851Z,203.45
2022-10-05T13:14:28.639Z,190.65
2022-10-05T13:17:13.868Z,178.10
2022-10-05T13:19:57.939Z,187.10
2022-10-05T13:22:36.970Z,195.80
2022-10-05T13:25:03.990Z,249.45
2022-10-05T13:27:32.140Z,259.15
2022-10-05T13:30:03.519Z,328.95
2022-10-05T13:32:38.271Z,336.90
2022-10-05T13:35:11.365Z,376.63
2022-10-05T13:37:50.944Z,393.08
2022-10-05T13:40:21.670Z,305.67
2022-10-05T13:42:52.572Z,217.48
2022-10-05T13:45:24.618Z,272.58
2022-10-05T13:47:51.887Z,262.17
2022-10-05T13:50:32.773Z,278.30
2022-10-05T13:53:21.386Z,279.88
2022-10-05T13:55:53.982Z,309.15
2022-10-05T13:58:39.801Z,306.85
2022-10-05T14:01:09.215Z,312.50
2022-10-05T14:03:37.779Z,209.98
2022-10-05T14:06:13.025Z,263.02
2022-10-05T14:08:48.405Z,176.98
2022-10-05T14:11:26.526Z,182.73
2022-10-05T14:14:01.775Z,210.15
2022-10-05T14:16:29.502Z,240.45
2022-10-05T14:18:59.370Z,170.60
2022-10-05T14:21:27.602Z,181.73
2022-10-05T14:23:56.355Z,208.93
2022-10-05T14:26:26.270Z,217.30
2022-10-05T14:29:12.014Z,235.23
2022-10-05T14:31:47.985Z,281.00
2022-10-05T14:34:29.317Z,263.67
2022-10-05T14:39:27.921Z,319.27
2022-10-05T14:41:54.980Z,320.98
2022-10-05T14:44:25.089Z,304.08
2022-10-05T14:46:58.695Z,298.10
2022-10-05T14:49:36.026Z,315.73
2022-10-05T14:52:23.151Z,328.02
2022-10-05T14:55:00.852Z,221.98
2022-10-05T14:57:40.737Z,209.50
2022-10-05T15:00:18.591Z,241.20
2022-10-05T15:02:48.771Z,418.20
2022-10-05T15:05:17.958Z,412.52
2022-10-05T15:07:48.127Z,530.03
2022-10-05T15:10:29.565Z,546.00
2022-10-05T15:15:27.064Z,320.25
2022-10-05T15:18:01.914Z,399.65
2022-10-05T15:20:37.771Z,400.38
2022-10-05T15:23:24.821Z,360.17
2022-10-05T15:26:01.891Z,357.50
2022-10-05T15:28:49.207Z,299.73
2022-10-05T15:31:37.884Z,384.33
2022-10-05T15:34:09.911Z,498.08
2022-10-05T15:36:41.413Z,219.35
2022-10-05T15:39:27.203Z,347.10
2022-10-05T15:41:55.225Z,341.75
2022-10-05T15:44:36.216Z,243.15
2022-10-05T15:47:26.354Z,322.08
2022-10-05T15:50:12.250Z,291.08
2022-10-05T15:52:58.850Z,333.48
2022-10-05T15:55:28.656Z,351.00
2022-10-05T15:58:01.787Z,361.55
2022-10-05T16:00:30.272Z,318.98
2022-10-05T16:03:16.031Z,591.55
2022-10-05T16:06:07.341Z,617.40
2022-10-05T16:08:54.247Z,497.42
2022-10-05T16:11:30.638Z,471.73
2022-10-05T16:14:20.743Z,722.92
2022-10-05T16:16:53.135Z,446.25
2022-10-05T16:19:29.225Z,543.38
2022-10-05T16:22:08.201Z,599.35
2022-10-05T16:24:48.645Z,616.35
2022-10-05T16:27:34.155Z,608.15
2022-10-05T16:30:08.614Z,518.53
2022-10-05T16:32:59.207Z,468.13
2022-10-05T16:35:38.404Z,430.38
2022-10-05T16:38:11.641Z,463.90
2022-10-05T16:40:45.134Z,419.58
2022-10-05T16:43:26.777Z,362.88
2022-10-05T16:45:59.171Z,358.80
2022-10-05T16:48:29.371Z,277.02
2022-10-05T16:50:56.414Z,283.60
2022-10-05T16:53:31.731Z,300.58
2022-10-05T16:56:02.476Z,241.02
2022-10-05T16:58:41.264Z,351.60
2022-10-05T17:01:27.286Z,379.92
2022-10-05T17:04:13.294Z,222.23
2022-10-05T17:07:07.453Z,201.60
2022-10-05T17:09:54.759Z,201.77
2022-10-05T17:12:26.645Z,214.68
2022-10-05T17:15:00.378Z,147.13
2022-10-05T17:17:33.663Z,146.52
2022-10-05T17:20:19.637Z,148.45
2022-10-05T17:22:56.214Z,259.35
2022-10-05T17:25:35.705Z,263.63
2022-10-05T17:28:21.375Z,155.68
2022-10-05T17:30:53.767Z,276.27
2022-10-05T17:33:29.036Z,175.18
2022-10-05T17:35:58.182Z,169.18
2022-10-05T17:38:45.214Z,162.80
2022-10-05T17:41:25.815Z,188.13
2022-10-05T17:44:10.972Z,161.53
2022-10-05T17:46:39.154Z,160.98
2022-10-05T17:49:06.714Z,135.45
2022-10-05T17:51:52.416Z,393.73
2022-10-05T17:54:38.521Z,318.27
2022-10-05T17:57:05.555Z,318.10
2022-10-05T17:59:49.102Z,304.58
2022-10-05T18:02:38.432Z,346.55
2022-10-05T18:05:05.602Z,405.40
2022-10-05T18:07:36.485Z,323.13
2022-10-05T18:10:12.489Z,300.50
2022-10-05T18:12:46.846Z,311.08
2022-10-05T18:15:21.217Z,312.77
2022-10-05T18:18:01.368Z,277.58
2022-10-05T18:20:32.613Z,305.17
2022-10-05T18:23:09.703Z,284.60
2022-10-05T18:25:45.879Z,189.98
2022-10-05T18:28:12.973Z,361.58
2022-10-05T18:30:55.518Z,299.00
2022-10-05T18:33:43.646Z,395.92
2022-10-05T18:36:13.458Z,335.80
2022-10-05T18:38:43.619Z,341.55
2022-10-05T18:41:17.428Z,233.07
2022-10-05T18:43:50.983Z,220.20
2022-10-05T18:46:32.329Z,280.67
2022-10-05T18:49:10.621Z,236.68
2022-10-05T18:51:37.744Z,239.07
2022-10-05T18:54:10.579Z,293.17
2022-10-05T18:56:41.773Z,348.20
2022-10-05T18:59:27.659Z,352.20
2022-10-05T19:02:02.730Z,374.23
2022-10-05T19:04:54.530Z,344.25
2022-10-05T19:09:58.006Z,365.65
2022-10-05T19:12:41.617Z,343.65
2022-10-05T19:15:27.978Z,353.52
2022-10-05T19:18:07.516Z,475.83
2022-10-05T19:20:36.996Z,488.25
2022-10-05T19:23:13.953Z,372.30
2022-10-05T19:25:41.142Z,393.90
2022-10-05T19:28:13.786Z,479.52
2022-10-05T19:30:59.573Z,389.95
2022-10-05T19:33:38.723Z,443.88
2022-10-05T19:36:11.666Z,421.15
2022-10-05T19:38:44.522Z,372.10
2022-10-05T19:41:14.938Z,377.00
2022-10-05T19:44:00.963Z,342.33
2022-10-05T19:46:34.105Z,337.83
2022-10-05T19:49:01.384Z,175.25
2022-10-05T19:51:32.287Z,251.90
2022-10-05T19:54:03.617Z,256.40
2022-10-05T19:56:34.605Z,315.13
2022-10-05T19:59:13.172Z,352.45
2022-10-05T20:01:40.625Z,297.42
2022-10-05T20:04:09.390Z,307.40
2022-10-05T20:06:39.387Z,300.40
2022-10-05T20:09:20.090Z,253.38
2022-10-05T20:11:54.093Z,327.23
2022-10-05T20:14:31.773Z,406.92
2022-10-05T20:17:35.017Z,664.78
2022-10-05T20:20:23.633Z,733.97
2022-10-05T20:22:50.723Z,682.78
2022-10-05T20:25:17.785Z,401.20
2022-10-05T20:27:46.485Z,395.50
2022-10-05T20:30:16.440Z,380.02
2022-10-05T20:32:45.556Z,393.63
2022-10-05T20:35:12.823Z,434.52
2022-10-05T20:37:40.268Z,461.55
2022-10-05T20:40:07.766Z,420.05
2022-10-05T20:42:35.090Z,441.27
2022-10-05T20:45:02.497Z,456.73
2022-10-05T20:47:29.605Z,448.13
2022-10-05T20:49:56.762Z,446.13
2022-10-05T20:52:23.921Z,405.85
2022-10-05T20:54:53.647Z,398.95
2022-10-05T20:57:21.310Z,424.73
2022-10-05T20:59:48.488Z,441.50
2022-10-05T21:02:15.573Z,436.83
2022-10-05T21:04:47.397Z,440.02
2022-10-05T21:07:19.806Z,425.35
2022-10-05T21:09:47.002Z,392.30
2022-10-05T21:12:16.195Z,400.05
2022-10-05T21:14:43.402Z,445.55
2022-10-05T21:17:11.921Z,374.17
2022-10-05T21:19:40.175Z,410.40
2022-10-05T21:22:08.226Z,407.98
2022-10-05T21:24:36.328Z,412.02
2022-10-05T21:27:03.876Z,386.88
2022-10-05T21:29:31.577Z,413.58
2022-10-05T21:31:58.707Z,381.65
2022-10-05T21:34:26.076Z,378.08
2022-10-05T21:36:53.157Z,422.17
2022-10-05T21:39:20.313Z,428.15
2022-10-05T21:41:49.638Z,378.20
2022-10-05T21:44:16.978Z,396.88
2022-10-05T21:46:44.414Z,420.17
2022-10-05T21:49:14.110Z,425.77
2022-10-05T21:51:43.413Z,449.27
2022-10-05T21:54:12.315Z,424.65
2022-10-05T21:56:41.239Z,453.23
2022-10-05T21:59:09.849Z,451.65
2022-10-05T22:01:36.978Z,433.83
2022-10-05T22:04:07.711Z,463.80
2022-10-05T22:06:35.529Z,359.20
2022-10-05T22:09:03.040Z,383.90
2022-10-05T22:11:31.319Z,409.27
2022-10-05T22:14:02.496Z,380.17
2022-10-05T22:16:34.285Z,417.27
2022-10-05T22:19:11.246Z,445.83
2022-10-05T22:21:41.553Z,406.95
2022-10-05T22:24:10.580Z,424.10
2022-10-05T22:26:37.762Z,421.25
2022-10-05T22:29:04.924Z,602.45
2022-10-05T22:31:32.010Z,559.97
2022-10-05T22:33:59.119Z,389.45
2022-10-05T22:36:26.400Z,407.75
2022-10-05T22:38:53.458Z,360.33
2022-10-05T22:41:20.818Z,382.50
2022-10-05T22:43:50.071Z,325.10
2022-10-05T22:46:17.430Z,331.83
2022-10-05T22:48:44.571Z,336.33
2022-10-05T22:51:11.648Z,332.92
2022-10-05T22:53:38.791Z,343.08
2022-10-05T22:56:09.895Z,335.23
2022-10-05T22:58:37.287Z,385.85
2022-10-05T23:01:09.189Z,404.10
2022-10-05T23:03:36.369Z,352.80
2022-10-05T23:06:05.271Z,378.17
2022-10-05T23:08:33.158Z,422.60
2022-10-05T23:11:03.731Z,487.00
2022-10-05T23:13:31.182Z,511.50
2022-10-05T23:15:58.258Z,489.10
2022-10-05T23:18:26.069Z,380.10
2022-10-05T23:20:56.501Z,372.75
2022-10-05T23:23:23.913Z,437.75
2022-10-05T23:25:50.985Z,386.95
2022-10-05T23:28:18.090Z,368.23
2022-10-05T23:30:45.333Z,395.77
2022-10-05T23:33:12.619Z,397.83
2022-10-05T23:35:39.681Z,376.05
2022-10-05T23:38:06.821Z,412.20
2022-10-05T23:40:33.884Z,404.90
2022-10-05T23:43:01.103Z,409.58
2022-10-05T23:45:28.319Z,430.65
2022-10-05T23:47:55.399Z,438.08
2022-10-05T23:50:24.876Z,740.80
2022-10-05T23:52:51.990Z,983.08
2022-10-05T23:55:19.149Z,585.95
2022-10-05T23:57:46.229Z,474.88
